Time;durP1;ratioP1;P1;durP2;ratioP2;P2;SDS_P1;SDS_P2;PMS_P1;PMS_P2;Temp;Humidity;BMP_temperature;BMP_pressure;BME280_temperature;BME280_humidity;BME280_pressure;Samples;Min_cycle;Max_cycle;Signal;HPM_P1;HPM_P2
2022/05/03 00:01:39;;;;;;;6.30;5.30;;;12.60;87.20;;;;;;5041881;28;20020;-79
2022/05/03 00:04:30;;;;;;;7.50;5.10;;;12.60;87.50;;;;;;5051489;28;20029;-79
2022/05/03 00:07:20;;;;;;;9.70;4.75;;;12.60;87.60;;;;;;5046645;28;20095;-80
2022/05/03 00:10:06;;;;;;;8.23;5.40;;;12.60;87.60;;;;;;5038086;28;20033;-81
2022/05/03 00:12:40;;;;;;;5.30;4.00;;;12.60;88.00;;;;;;5040754;28;20033;-79
2022/05/03 00:15:06;;;;;;;5.88;4.85;;;12.60;88.20;;;;;;5035697;28;20112;-80
2022/05/03 00:17:33;;;;;;;6.40;4.78;;;12.60;88.10;;;;;;5034535;28;20017;-80
2022/05/03 00:20:00;;;;;;;8.85;5.18;;;12.60;88.40;;;;;;5043868;28;20032;-82
2022/05/03 00:22:25;;;;;;;5.65;4.63;;;12.60;88.50;;;;;;5046524;28;20021;-80
2022/05/03 00:24:54;;;;;;;7.28;5.32;;;12.60;88.50;;;;;;5046782;28;20078;-80
2022/05/03 00:27:28;;;;;;;7.35;5.53;;;12.60;88.60;;;;;;5034913;28;20032;-79
2022/05/03 00:29:55;;;;;;;6.60;5.18;;;12.60;88.90;;;;;;5044798;28;20033;-79
2022/05/03 00:32:22;;;;;;;6.95;5.63;;;12.60;89.00;;;;;;5039375;28;20032;-81
2022/05/03 00:34:49;;;;;;;7.75;5.45;;;12.60;89.10;;;;;;5039290;28;20025;-81
2022/05/03 00:37:14;;;;;;;7.10;5.45;;;12.60;89.20;;;;;;5032346;28;20088;-81
2022/05/03 00:39:40;;;;;;;8.07;5.15;;;12.60;89.20;;;;;;5032339;28;20747;-82
2022/05/03 00:42:21;;;;;;;7.38;5.55;;;12.60;90.00;;;;;;5050595;28;20036;-80
2022/05/03 00:45:13;;;;;;;12.82;6.63;;;12.50;89.50;;;;;;5047707;28;20025;-82
2022/05/03 00:47:53;;;;;;;6.45;5.50;;;12.50;89.80;;;;;;5039564;28;20040;-79
2022/05/03 00:50:39;;;;;;;7.82;6.18;;;12.50;90.10;;;;;;5044737;28;20040;-80
2022/05/03 00:53:14;;;;;;;7.05;5.85;;;12.50;90.20;;;;;;5047176;28;20454;-81
2022/05/03 00:55:54;;;;;;;5.85;5.25;;;12.40;90.30;;;;;;5046985;28;20039;-81
2022/05/03 00:58:57;;;;;;;8.43;5.55;;;12.40;90.40;;;;;;5052292;28;20060;-79
2022/05/03 01:01:33;;;;;;;;;;;12.40;90.50;;;;;;5041874;28;20465;-80
2022/05/03 01:04:11;;;;;;;6.22;5.63;;;12.30;90.60;;;;;;5048231;28;20269;-79
2022/05/03 01:06:44;;;;;;;8.57;5.72;;;12.30;90.70;;;;;;5044670;28;20037;-80
2022/05/03 01:09:10;;;;;;;13.20;5.97;;;12.20;90.90;;;;;;5036568;28;20044;-80
2022/05/03 01:12:02;;;;;;;8.07;6.38;;;12.10;90.90;;;;;;5057191;28;20033;-79
2022/05/03 01:14:28;;;;;;;8.38;5.30;;;12.00;91.00;;;;;;5036642;28;20014;-79
2022/05/03 01:17:04;;;;;;;7.82;5.70;;;12.00;91.10;;;;;;5042459;28;20078;-80
2022/05/03 01:19:45;;;;;;;7.00;5.47;;;11.90;91.30;;;;;;5032844;28;20030;-79
2022/05/03 01:22:17;;;;;;;8.25;4.90;;;11.90;91.30;;;;;;5059529;28;20347;-80
2022/05/03 01:25:15;;;;;;;9.93;6.13;;;11.90;91.40;;;;;;5046468;28;20036;-81
2022/05/03 01:27:51;;;;;;;7.72;4.97;;;11.90;91.50;;;;;;5023395;28;20045;-81
2022/05/03 01:30:17;;;;;;;6.22;5.30;;;11.90;91.60;;;;;;5039043;28;20024;-80
2022/05/03 01:32:44;;;;;;;7.13;5.05;;;11.90;91.60;;;;;;5048579;28;20029;-80
2022/05/03 01:35:13;;;;;;;8.73;5.25;;;11.90;91.90;;;;;;5041066;28;20373;-80
2022/05/03 01:37:55;;;;;;;6.32;5.22;;;11.90;91.70;;;;;;5052538;28;20118;-79
2022/05/03 01:40:57;;;;;;;9.23;5.25;;;11.90;91.80;;;;;;5056588;28;20055;-80
2022/05/03 01:43:52;;;;;;;5.93;4.75;;;11.90;91.80;;;;;;5061549;28;20036;-79
2022/05/03 01:46:24;;;;;;;6.47;5.03;;;11.80;91.90;;;;;;5053054;28;20048;-81
2022/05/03 01:51:49;;;;;;;7.80;4.80;;;11.80;91.80;;;;;;5051468;28;20148;-80
2022/05/03 01:54:32;;;;;;;7.10;5.50;;;11.80;91.70;;;;;;5057870;28;20049;-80
2022/05/03 01:57:10;;;;;;;6.97;5.53;;;11.90;91.90;;;;;;5068570;28;20017;-80
2022/05/03 02:00:09;;;;;;;8.20;5.85;;;11.90;91.90;;;;;;5032461;28;20026;-80
2022/05/03 02:02:53;;;;;;;7.55;5.50;;;11.80;91.90;;;;;;5048334;28;20020;-79
2022/05/03 02:05:48;;;;;;;6.20;5.55;;;11.80;92.00;;;;;;5032378;28;20024;-80
2022/05/03 02:08:24;;;;;;;12.77;5.57;;;11.70;92.00;;;;;;5043342;28;20036;-79
2022/05/03 02:11:01;;;;;;;5.53;4.85;;;11.70;92.10;;;;;;5055901;28;20025;-80
2022/05/03 02:16:57;;;;;;;5.72;4.80;;;11.60;92.20;;;;;;5037544;28;20040;-80
2022/05/03 02:19:44;;;;;;;6.40;5.80;;;11.60;92.30;;;;;;5043440;28;20115;-81
2022/05/03 02:22:30;;;;;;;13.05;6.05;;;11.60;92.50;;;;;;5058131;28;20390;-81
2022/05/03 02:25:11;;;;;;;8.85;5.50;;;11.50;92.60;;;;;;5041980;28;20025;-80
2022/05/03 02:27:42;;;;;;;6.60;5.90;;;11.50;92.70;;;;;;5031578;28;20029;-80
2022/05/03 02:30:08;;;;;;;6.43;5.10;;;11.40;92.80;;;;;;5044916;28;20026;-79
2022/05/03 02:33:03;;;;;;;7.50;5.88;;;11.40;93.00;;;;;;5053377;28;20512;-80
2022/05/03 02:35:34;;;;;;;6.72;5.53;;;11.40;93.00;;;;;;5045443;28;20037;-81
2022/05/03 02:38:05;;;;;;;7.47;6.05;;;11.30;93.10;;;;;;5046386;28;20032;-79
2022/05/03 02:40:32;;;;;;;8.70;6.43;;;11.30;93.20;;;;;;5034084;28;20040;-80
2022/05/03 02:42:58;;;;;;;8.15;6.30;;;11.30;93.30;;;;;;5060264;28;20381;-81
2022/05/03 02:45:25;;;;;;;6.45;5.40;;;11.30;93.40;;;;;;5037979;28;20053;-79
2022/05/03 02:48:17;;;;;;;7.35;5.95;;;11.20;93.40;;;;;;5034646;28;20105;-80
2022/05/03 02:50:55;;;;;;;8.05;5.80;;;11.20;93.60;;;;;;5049569;28;20441;-79
2022/05/03 02:53:28;;;;;;;9.60;6.40;;;11.10;93.90;;;;;;5043468;28;20413;-79
2022/05/03 02:55:59;;;;;;;11.13;6.22;;;11.00;94.00;;;;;;5035313;28;20020;-81
2022/05/03 02:58:51;;;;;;;8.82;6.40;;;11.00;94.10;;;;;;5033199;28;20056;-80
2022/05/03 03:01:48;;;;;;;4.75;4.32;;;10.90;94.10;;;;;;5051773;28;20048;-79
2022/05/03 03:04:37;;;;;;;7.15;6.38;;;10.90;94.20;;;;;;5033653;28;20113;-80
2022/05/03 03:07:04;;;;;;;7.85;6.32;;;10.90;94.30;;;;;;5040572;28;20024;-80
2022/05/03 03:09:49;;;;;;;7.90;6.40;;;10.90;94.30;;;;;;5005398;28;978374;-80
2022/05/03 03:12:28;;;;;;;8.45;6.22;;;10.90;94.40;;;;;;5049147;28;20017;-81
2022/05/03 03:15:08;;;;;;;8.57;6.43;;;11.00;94.60;;;;;;5047712;28;20036;-80
2022/05/03 03:17:48;;;;;;;9.80;6.55;;;10.90;94.40;;;;;;5053433;28;20483;-79
2022/05/03 03:20:14;;;;;;;7.85;6.55;;;10.90;94.50;;;;;;5045287;28;20037;-80
2022/05/03 03:22:42;;;;;;;10.15;7.93;;;10.90;94.90;;;;;;5037112;28;20021;-81
2022/05/03 03:25:16;;;;;;;10.25;7.18;;;10.90;95.00;;;;;;5052329;28;20013;-79
2022/05/03 03:27:47;;;;;;;7.63;6.53;;;10.90;95.10;;;;;;5046664;28;20037;-81
2022/05/03 03:30:14;;;;;;;11.25;7.30;;;11.00;95.10;;;;;;5048064;28;20091;-78
2022/05/03 03:32:46;;;;;;;8.07;7.28;;;11.00;95.10;;;;;;5046556;28;20512;-79
2022/05/03 03:35:14;;;;;;;10.68;7.07;;;11.00;95.10;;;;;;5032433;28;20076;-79
2022/05/03 03:37:44;;;;;;;9.70;7.40;;;11.10;95.10;;;;;;5046600;28;20119;-80
2022/05/03 03:40:10;;;;;;;10.30;7.63;;;11.10;95.00;;;;;;5047688;28;20074;-80
2022/05/03 03:42:36;;;;;;;11.40;7.35;;;11.00;95.40;;;;;;5065239;28;20389;-79
2022/05/03 03:45:07;;;;;;;11.45;7.50;;;11.00;95.30;;;;;;5050892;28;20017;-79
2022/05/03 03:47:34;;;;;;;9.18;7.15;;;11.00;95.30;;;;;;5041212;28;20032;-79
2022/05/03 03:50:00;;;;;;;11.00;7.82;;;11.00;95.30;;;;;;5048864;28;20489;-79
2022/05/03 03:52:26;;;;;;;8.77;7.80;;;11.00;95.60;;;;;;5051527;28;20029;-81
2022/05/03 03:54:56;;;;;;;11.75;8.88;;;11.00;95.80;;;;;;5066009;28;20029;-79
2022/05/03 03:57:22;;;;;;;8.65;7.38;;;10.90;96.00;;;;;;5048397;28;20039;-79
2022/05/03 03:59:48;;;;;;;10.75;8.15;;;10.90;95.90;;;;;;5056318;28;20728;-82
2022/05/03 04:02:15;;;;;;;13.27;8.40;;;10.90;95.90;;;;;;5043885;28;20063;-79
2022/05/03 04:04:42;;;;;;;12.13;8.13;;;10.90;96.10;;;;;;5040728;28;20040;-80
2022/05/03 04:07:07;;;;;;;10.30;7.95;;;10.90;96.10;;;;;;5052407;28;20409;-79
2022/05/03 04:09:33;;;;;;;9.35;7.90;;;10.90;96.00;;;;;;5057358;28;20040;-79
2022/05/03 04:12:04;;;;;;;9.63;7.50;;;10.90;96.00;;;;;;5034930;28;20107;-80
2022/05/03 04:14:29;;;;;;;10.40;8.23;;;11.00;96.00;;;;;;5057074;28;20533;-78
2022/05/03 04:16:55;;;;;;;11.80;8.25;;;11.00;96.00;;;;;;5043898;28;20124;-79
2022/05/03 04:19:21;;;;;;;11.73;8.07;;;11.00;95.90;;;;;;5036069;28;20038;-80
2022/05/03 04:21:47;;;;;;;10.40;8.27;;;11.00;96.00;;;;;;5047612;28;20025;-78
2022/05/03 04:24:13;;;;;;;9.98;7.60;;;11.00;95.90;;;;;;5046168;28;20025;-79
2022/05/03 04:26:39;;;;;;;11.07;8.07;;;11.00;96.00;;;;;;5050892;28;20025;-79
2022/05/03 04:29:04;;;;;;;13.02;8.63;;;11.00;96.00;;;;;;5053019;28;20033;-77
2022/05/03 04:31:35;;;;;;;14.23;9.23;;;11.00;96.00;;;;;;5041669;28;20025;-80
2022/05/03 04:34:03;;;;;;;12.70;7.53;;;11.00;96.00;;;;;;5044656;28;20112;-81
2022/05/03 04:36:30;;;;;;;12.27;8.80;;;11.00;96.00;;;;;;5054182;28;20028;-79
2022/05/03 04:38:56;;;;;;;11.90;7.40;;;11.00;95.90;;;;;;5037895;28;20061;-79
2022/05/03 04:41:22;;;;;;;10.80;8.25;;;11.10;95.90;;;;;;5036873;28;20036;-79
2022/05/03 04:43:48;;;;;;;12.02;9.50;;;11.10;95.80;;;;;;5051909;28;20022;-78
2022/05/03 04:46:13;;;;;;;11.93;8.52;;;11.20;95.80;;;;;;5049865;28;20056;-79
2022/05/03 04:48:40;;;;;;;15.07;8.85;;;11.20;95.80;;;;;;5033903;28;20029;-79
2022/05/03 04:51:06;;;;;;;11.80;7.97;;;11.20;95.80;;;;;;5045256;28;20025;-79
2022/05/03 04:53:32;;;;;;;12.18;7.63;;;11.20;95.90;;;;;;5036197;28;20373;-79
2022/05/03 04:55:58;;;;;;;12.77;7.72;;;11.20;95.90;;;;;;5038503;28;20458;-78
2022/05/03 04:58:24;;;;;;;12.45;8.65;;;11.20;95.80;;;;;;5038772;28;20021;-81
2022/05/03 05:00:49;;;;;;;10.10;7.82;;;11.20;95.70;;;;;;5043111;28;20033;-80
2022/05/03 05:03:15;;;;;;;12.68;7.47;;;11.10;95.50;;;;;;5048345;28;20021;-81
2022/05/03 05:05:40;;;;;;;9.18;7.80;;;11.20;95.50;;;;;;5048195;28;20033;-80
2022/05/03 05:08:07;;;;;;;9.77;8.23;;;11.20;95.40;;;;;;5045545;28;20039;-81
2022/05/03 05:10:33;;;;;;;10.65;7.95;;;11.20;95.40;;;;;;5048166;28;20087;-81
2022/05/03 05:13:01;;;;;;;9.80;8.02;;;11.20;95.30;;;;;;5037770;28;20025;-80
2022/05/03 05:15:29;;;;;;;10.00;7.60;;;11.20;95.20;;;;;;5054816;28;20053;-80
2022/05/03 05:17:56;;;;;;;11.02;8.20;;;11.20;95.10;;;;;;5039760;28;20358;-80
2022/05/03 05:20:23;;;;;;;8.02;6.70;;;11.30;95.00;;;;;;5050101;28;20478;-81
2022/05/03 05:22:49;;;;;;;9.88;7.30;;;11.40;94.80;;;;;;5042983;28;20711;-80
2022/05/03 05:25:14;;;;;;;9.30;7.60;;;11.50;94.70;;;;;;5042074;28;20025;-81
2022/05/03 05:27:40;;;;;;;13.20;7.85;;;11.60;94.50;;;;;;5050752;28;20779;-80
2022/05/03 05:30:08;;;;;;;10.13;7.65;;;11.70;94.50;;;;;;5035002;28;20049;-81
2022/05/03 05:32:34;;;;;;;9.48;7.38;;;11.70;94.20;;;;;;5036955;28;20040;-81
2022/05/03 05:35:00;;;;;;;10.52;7.00;;;11.70;94.10;;;;;;5054940;28;20420;-83
2022/05/03 05:37:25;;;;;;;13.68;7.57;;;11.80;94.10;;;;;;5034789;28;20035;-82
2022/05/03 05:39:51;;;;;;;15.32;7.55;;;11.80;94.00;;;;;;5030964;28;20370;-80
2022/05/03 05:42:17;;;;;;;8.50;7.30;;;11.80;94.00;;;;;;5050254;28;20089;-78
2022/05/03 05:44:42;;;;;;;15.45;7.82;;;11.90;94.00;;;;;;5050534;28;20072;-82
2022/05/03 05:47:08;;;;;;;10.63;7.30;;;12.10;93.80;;;;;;5050134;28;20051;-82
2022/05/03 05:49:33;;;;;;;9.40;7.38;;;12.10;93.40;;;;;;5049676;28;20072;-80
2022/05/03 05:53:31;;;;;;;11.18;7.75;;;12.20;93.50;;;;;;5048399;28;20119;-81
2022/05/03 05:54:44;;;;;;;11.73;6.65;;;12.30;93.30;;;;;;5038298;28;20036;-78
2022/05/03 05:57:10;;;;;;;8.45;6.80;;;12.40;93.20;;;;;;5030114;28;20409;-79
2022/05/03 05:59:35;;;;;;;12.20;7.63;;;12.40;93.10;;;;;;5037019;28;20113;-79
2022/05/03 06:02:01;;;;;;;12.25;7.00;;;12.50;93.00;;;;;;5033078;28;20037;-79
2022/05/03 06:04:29;;;;;;;13.77;7.85;;;12.50;92.80;;;;;;5050201;28;20086;-78
2022/05/03 06:06:55;;;;;;;13.55;7.60;;;12.60;92.90;;;;;;5039785;28;20108;-78
2022/05/03 06:09:21;;;;;;;11.27;7.05;;;12.70;92.80;;;;;;5029839;28;20049;-79
2022/05/03 06:11:47;;;;;;;8.25;7.35;;;12.60;92.90;;;;;;5039554;28;20032;-79
2022/05/03 06:14:12;;;;;;;13.80;7.55;;;12.70;92.80;;;;;;5049846;28;20025;-81
2022/05/03 06:16:51;;;;;;;9.55;6.55;;;12.70;92.60;;;;;;5049201;28;20116;-79
2022/05/03 06:19:17;;;;;;;10.18;6.65;;;12.70;92.70;;;;;;5039007;28;20071;-80
2022/05/03 06:21:43;;;;;;;7.85;6.03;;;12.70;92.70;;;;;;5037966;28;20037;-79
2022/05/03 06:24:09;;;;;;;13.48;6.60;;;12.80;92.50;;;;;;5046544;28;20033;-80
2022/05/03 06:26:35;;;;;;;7.95;6.45;;;13.00;92.10;;;;;;5049090;28;20724;-80
2022/05/03 06:29:02;;;;;;;10.90;6.78;;;13.00;92.10;;;;;;5040196;28;20060;-80
2022/05/03 06:31:28;;;;;;;8.60;6.63;;;13.10;92.00;;;;;;5041818;28;20082;-80
2022/05/03 06:33:55;;;;;;;12.88;7.50;;;13.10;91.60;;;;;;5049372;28;20028;-79
2022/05/03 06:36:21;;;;;;;9.07;7.15;;;13.10;91.50;;;;;;5048110;28;20021;-79
2022/05/03 06:38:47;;;;;;;11.27;7.65;;;13.10;91.40;;;;;;5048101;28;20559;-79
2022/05/03 06:41:12;;;;;;;12.90;7.18;;;13.20;91.50;;;;;;5035620;28;20040;-79
2022/05/03 06:43:38;;;;;;;10.60;6.97;;;13.20;91.80;;;;;;5049224;28;20052;-79
2022/05/03 06:46:03;;;;;;;9.35;7.20;;;13.20;91.60;;;;;;5047575;28;20123;-79
2022/05/03 06:48:29;;;;;;;10.60;7.55;;;13.40;91.60;;;;;;5049230;28;20462;-79
2022/05/03 06:50:54;;;;;;;8.10;6.28;;;13.50;91.60;;;;;;5048702;28;20040;-80
2022/05/03 06:53:20;;;;;;;8.35;6.57;;;13.70;91.20;;;;;;5049560;28;20052;-81
2022/05/03 06:55:46;;;;;;;9.25;6.90;;;13.70;91.20;;;;;;5048329;28;20075;-79
2022/05/03 06:58:13;;;;;;;10.63;7.15;;;13.80;91.10;;;;;;5049344;28;20033;-80
2022/05/03 07:00:38;;;;;;;15.65;7.38;;;13.80;91.10;;;;;;5047640;28;20092;-80
2022/05/03 07:03:04;;;;;;;13.65;7.50;;;14.00;91.10;;;;;;5048965;28;20033;-80
2022/05/03 07:05:30;;;;;;;9.20;5.63;;;14.10;90.70;;;;;;5048883;28;20466;-79
2022/05/03 07:07:56;;;;;;;8.52;6.32;;;14.10;90.20;;;;;;5048903;28;20025;-83
2022/05/03 07:10:22;;;;;;;13.38;7.07;;;14.30;90.50;;;;;;5048928;28;20036;-81
2022/05/03 07:12:47;;;;;;;6.93;5.70;;;14.30;90.30;;;;;;5048545;28;20484;-79
2022/05/03 07:15:13;;;;;;;11.30;6.38;;;14.50;90.00;;;;;;5046827;28;20025;-81
2022/05/03 07:23:08;;;;;;;8.00;6.28;;;14.80;88.50;;;;;;5034357;28;20059;-81
2022/05/03 07:25:35;;;;;;;12.93;5.93;;;14.80;88.20;;;;;;5048189;28;20032;-80
2022/05/03 07:28:00;;;;;;;7.57;5.35;;;14.90;88.60;;;;;;5053580;28;20019;-82
2022/05/03 07:30:26;;;;;;;10.50;5.55;;;15.00;87.70;;;;;;5053472;28;20107;-78
2022/05/03 07:32:52;;;;;;;6.35;4.80;;;15.00;86.80;;;;;;5053392;28;20029;-80
2022/05/03 07:35:17;;;;;;;8.32;5.90;;;15.30;86.40;;;;;;5050115;28;20037;-80
2022/05/03 07:37:43;;;;;;;8.10;5.53;;;15.50;86.30;;;;;;5050890;28;20071;-83
2022/05/03 07:40:09;;;;;;;9.55;5.55;;;15.60;84.90;;;;;;5053158;28;20033;-79
2022/05/03 07:42:35;;;;;;;10.48;5.68;;;15.80;84.20;;;;;;5052711;28;20485;-79
2022/05/03 07:45:01;;;;;;;7.05;5.55;;;15.80;84.10;;;;;;5053426;28;20047;-81
2022/05/03 07:47:27;;;;;;;6.28;4.88;;;16.00;82.90;;;;;;5052205;28;20021;-81
2022/05/03 07:49:53;;;;;;;6.45;4.68;;;16.10;82.30;;;;;;5052149;28;20024;-80
2022/05/03 07:52:19;;;;;;;5.75;4.63;;;16.10;81.60;;;;;;5052797;28;20025;-83
2022/05/03 07:54:44;;;;;;;5.90;4.68;;;16.20;79.90;;;;;;5044349;28;20025;-77
2022/05/03 07:57:13;;;;;;;11.43;5.90;;;16.20;79.90;;;;;;5050225;28;20024;-78
2022/05/03 07:59:39;;;;;;;6.80;4.68;;;16.40;81.20;;;;;;5056799;28;20049;-77
2022/05/03 08:02:07;;;;;;;7.78;5.30;;;16.70;79.70;;;;;;5042499;28;20029;-78
2022/05/03 08:04:33;;;;;;;9.80;5.28;;;16.80;78.50;;;;;;5038572;28;20021;-77
2022/05/03 08:06:59;;;;;;;5.85;4.72;;;17.00;78.90;;;;;;5045346;28;20028;-78
2022/05/03 08:09:24;;;;;;;10.25;5.53;;;17.20;78.40;;;;;;5041325;28;20033;-78
2022/05/03 08:11:50;;;;;;;10.52;5.55;;;17.10;79.00;;;;;;5035388;28;20470;-79
2022/05/03 08:14:15;;;;;;;5.93;4.70;;;17.10;78.50;;;;;;5044575;28;20033;-78
2022/05/03 08:16:41;;;;;;;6.50;4.88;;;17.30;78.60;;;;;;5033831;28;20031;-80
2022/05/03 08:19:07;;;;;;;6.47;5.22;;;17.30;77.60;;;;;;5031795;28;20025;-78
2022/05/03 08:21:35;;;;;;;7.20;5.13;;;17.20;78.30;;;;;;5031809;28;20409;-80
2022/05/03 08:24:00;;;;;;;8.07;5.22;;;17.20;78.80;;;;;;5048821;28;20048;-78
2022/05/03 08:26:26;;;;;;;11.10;6.13;;;17.30;79.10;;;;;;5045060;28;20053;-78
2022/05/03 08:28:51;;;;;;;5.15;4.65;;;17.30;77.40;;;;;;5039860;28;20086;-78
2022/05/03 08:31:17;;;;;;;5.97;4.47;;;17.30;77.50;;;;;;5051801;28;20033;-79
2022/05/03 08:33:44;;;;;;;4.90;4.35;;;17.40;77.70;;;;;;5049359;28;20028;-77
2022/05/03 08:36:10;;;;;;;7.57;4.25;;;17.50;75.80;;;;;;5035220;28;20781;-79
2022/05/03 08:44:04;;;;;;;9.50;4.03;;;17.80;74.50;;;;;;5044517;28;20039;-78
2022/05/03 08:46:30;;;;;;;10.02;5.32;;;17.90;73.70;;;;;;5045929;28;20029;-79
2022/05/03 08:49:02;;;;;;;7.93;3.88;;;18.00;74.70;;;;;;5042610;28;20029;-78
2022/05/03 08:51:29;;;;;;;8.13;4.03;;;18.10;74.50;;;;;;5051364;28;20025;-79
2022/05/03 08:53:55;;;;;;;5.55;4.15;;;18.20;71.80;;;;;;5047413;28;20109;-78
2022/05/03 08:56:21;;;;;;;7.03;4.53;;;18.30;73.50;;;;;;5039958;28;20031;-78
2022/05/03 08:58:47;;;;;;;5.28;3.50;;;18.40;70.40;;;;;;5034526;28;20124;-78
2022/05/03 09:01:13;;;;;;;7.97;4.35;;;18.50;70.30;;;;;;5033719;28;20115;-78
2022/05/03 09:03:39;;;;;;;7.18;4.40;;;18.40;70.70;;;;;;5050133;28;20029;-78
2022/05/03 09:06:05;;;;;;;4.45;3.60;;;18.50;69.20;;;;;;5050837;28;20056;-78
2022/05/03 09:08:32;;;;;;;5.82;4.20;;;18.60;69.50;;;;;;5050602;28;20527;-78
2022/05/03 09:10:59;;;;;;;7.10;3.80;;;18.70;71.50;;;;;;5050230;28;20028;-78
2022/05/03 09:13:28;;;;;;;9.40;3.83;;;18.90;68.80;;;;;;5050832;28;20028;-78
2022/05/03 09:15:56;;;;;;;6.32;3.97;;;19.00;67.40;;;;;;5049764;28;20021;-78
2022/05/03 09:18:29;;;;;;;5.05;3.55;;;19.10;69.60;;;;;;5050226;28;20029;-77
2022/05/03 09:23:48;;;;;;;5.65;4.45;;;19.40;70.10;;;;;;5046439;28;20124;-77
2022/05/03 09:26:26;;;;;;;6.68;4.25;;;19.50;69.30;;;;;;5045874;28;20044;-79
2022/05/03 09:29:09;;;;;;;6.88;4.50;;;19.60;67.70;;;;;;5041986;28;20591;-78
2022/05/03 09:31:47;;;;;;;;;;;19.80;67.20;;;;;;5044289;28;20029;-79
2022/05/03 09:34:26;;;;;;;6.32;3.95;;;19.80;66.40;;;;;;5031433;28;20077;-78
2022/05/03 09:36:54;;;;;;;6.80;3.80;;;19.80;66.40;;;;;;5042972;28;20029;-78
2022/05/03 09:39:22;;;;;;;6.63;4.22;;;19.80;67.20;;;;;;5049018;28;20023;-78
2022/05/03 09:42:09;;;;;;;6.00;4.18;;;19.90;69.00;;;;;;5043018;28;20036;-77
2022/05/03 09:44:40;;;;;;;6.15;3.72;;;19.90;66.20;;;;;;5030610;28;20018;-78
2022/05/03 09:47:09;;;;;;;6.70;4.38;;;19.90;67.40;;;;;;5031825;28;20029;-78
2022/05/03 09:49:40;;;;;;;12.38;4.15;;;19.80;66.40;;;;;;5049632;28;20025;-78
2022/05/03 09:52:09;;;;;;;4.22;3.33;;;19.80;66.40;;;;;;5050197;28;20081;-78
2022/05/03 09:54:51;;;;;;;7.47;3.80;;;19.80;66.30;;;;;;5050282;28;20060;-79
2022/05/03 09:57:21;;;;;;;4.50;3.50;;;19.90;67.10;;;;;;5049541;28;20204;-78
2022/05/03 09:59:48;;;;;;;8.02;4.03;;;20.00;65.80;;;;;;5034526;28;20368;-78
2022/05/03 10:02:16;;;;;;;5.45;3.83;;;20.10;66.10;;;;;;5045951;28;20036;-78
2022/05/03 10:04:44;;;;;;;13.32;4.50;;;20.20;65.80;;;;;;5049478;28;20478;-79
2022/05/03 10:07:10;;;;;;;5.00;3.67;;;20.30;65.90;;;;;;5046653;28;20466;-78
2022/05/03 10:09:36;;;;;;;6.88;3.33;;;20.40;64.60;;;;;;5047685;28;20044;-78
2022/05/03 10:12:04;;;;;;;9.88;4.10;;;20.50;65.70;;;;;;5041867;28;20068;-78
2022/05/03 10:14:29;;;;;;;4.88;3.42;;;20.70;64.30;;;;;;5043546;28;20029;-78
2022/05/03 10:22:39;;;;;;;7.40;3.30;;;21.00;61.90;;;;;;5033218;28;20040;-79
2022/05/03 10:25:06;;;;;;;3.45;3.15;;;21.00;63.90;;;;;;5039927;28;20024;-78
2022/05/03 10:27:51;;;;;;;5.10;3.78;;;21.00;63.00;;;;;;5039251;28;20022;-78
2022/05/03 10:30:20;;;;;;;5.53;3.45;;;21.10;64.00;;;;;;5044321;28;20059;-80
2022/05/03 10:33:05;;;;;;;4.85;4.03;;;21.20;63.20;;;;;;5049001;28;20138;-78
2022/05/03 10:35:33;;;;;;;5.40;3.72;;;21.20;60.50;;;;;;5047820;28;20076;-78
2022/05/03 10:37:59;;;;;;;6.82;3.95;;;21.20;65.00;;;;;;5049046;28;20025;-78
2022/05/03 10:40:34;;;;;;;5.13;3.45;;;21.30;63.80;;;;;;5046860;28;20071;-79
2022/05/03 10:43:09;;;;;;;4.53;3.60;;;21.40;62.40;;;;;;5048875;28;20449;-79
2022/05/03 10:46:11;;;;;;;5.05;4.00;;;21.60;60.70;;;;;;5047552;28;20420;-78
2022/05/03 10:48:37;;;;;;;7.32;4.22;;;21.70;60.10;;;;;;5047551;28;20040;-79
2022/05/03 10:51:04;;;;;;;4.03;3.53;;;21.70;60.00;;;;;;5048404;28;20028;-78
2022/05/03 10:53:34;;;;;;;4.35;3.60;;;21.80;60.40;;;;;;5047898;28;20036;-79
2022/05/03 10:56:18;;;;;;;6.32;3.47;;;21.90;60.50;;;;;;5046751;28;20441;-80
2022/05/03 10:59:08;;;;;;;5.88;3.83;;;22.10;65.90;;;;;;5048639;28;20427;-81
2022/05/03 11:01:54;;;;;;;4.22;3.58;;;22.30;60.80;;;;;;5048901;28;20052;-80
2022/05/03 11:04:20;;;;;;;5.88;3.50;;;22.40;61.00;;;;;;5035204;28;20488;-78
2022/05/03 11:06:47;;;;;;;5.82;3.63;;;22.40;59.60;;;;;;5032557;28;20334;-80
2022/05/03 11:09:15;;;;;;;6.22;3.55;;;22.30;59.30;;;;;;5027119;28;20037;-78
2022/05/03 11:11:43;;;;;;;5.05;3.80;;;22.30;61.20;;;;;;5045606;28;20017;-78
2022/05/03 11:14:21;;;;;;;4.20;3.78;;;22.30;61.80;;;;;;5043862;28;20444;-78
2022/05/03 11:16:49;;;;;;;5.57;3.30;;;22.40;60.60;;;;;;5044091;28;20017;-78
2022/05/03 11:19:19;;;;;;;4.68;3.88;;;22.50;61.20;;;;;;5042354;28;20040;-79
2022/05/03 11:21:47;;;;;;;4.20;2.75;;;22.40;59.40;;;;;;5048050;28;20538;-79
2022/05/03 11:24:18;;;;;;;5.60;3.40;;;22.50;60.20;;;;;;5043833;28;20018;-78
2022/05/03 11:26:44;;;;;;;6.03;3.70;;;22.70;61.00;;;;;;5029079;28;20029;-78
2022/05/03 11:29:12;;;;;;;7.40;3.47;;;22.70;58.60;;;;;;5045344;28;20032;-78
2022/05/03 11:31:38;;;;;;;5.82;3.72;;;22.80;59.70;;;;;;5037713;28;20025;-78
2022/05/03 11:34:06;;;;;;;4.30;3.47;;;22.90;58.60;;;;;;5037268;28;20429;-79
2022/05/03 11:36:33;;;;;;;9.25;3.70;;;22.90;59.80;;;;;;5034838;28;20082;-79
2022/05/03 11:39:00;;;;;;;8.20;3.40;;;23.00;59.40;;;;;;5047621;28;20146;-78
2022/05/03 11:41:27;;;;;;;4.43;3.65;;;22.90;59.60;;;;;;5039215;28;20026;-79
2022/05/03 11:43:53;;;;;;;4.88;3.53;;;23.00;58.30;;;;;;5028776;28;20044;-78
2022/05/03 11:46:21;;;;;;;11.07;4.25;;;23.00;59.80;;;;;;5028556;28;20472;-79
2022/05/03 11:49:01;;;;;;;5.60;4.18;;;23.00;59.60;;;;;;5042804;28;20028;-80
2022/05/03 11:57:12;;;;;;;8.88;4.03;;;22.90;58.00;;;;;;5042075;28;20071;-79
2022/05/03 11:59:39;;;;;;;6.70;3.85;;;22.90;57.30;;;;;;5038051;28;20057;-79
2022/05/03 12:02:29;;;;;;;9.60;4.20;;;23.00;58.50;;;;;;5027293;28;20109;-80
2022/05/03 12:05:15;;;;;;;6.18;3.50;;;23.00;57.00;;;;;;5050562;28;20044;-78
2022/05/03 12:07:49;;;;;;;4.05;3.10;;;23.10;58.50;;;;;;5048414;28;20017;-79
2022/05/03 12:10:27;;;;;;;5.60;3.85;;;23.30;59.70;;;;;;5042821;28;20114;-79
2022/05/03 12:13:17;;;;;;;10.77;4.68;;;23.40;58.70;;;;;;5030743;28;20450;-79
2022/05/03 12:15:48;;;;;;;7.05;3.60;;;23.30;55.60;;;;;;5045626;28;20025;-79
2022/05/03 12:18:29;;;;;;;5.63;3.65;;;23.10;58.20;;;;;;5047306;28;20064;-79
2022/05/03 12:21:02;;;;;;;5.20;3.47;;;23.00;57.50;;;;;;5050053;28;20637;-80
2022/05/03 12:23:33;;;;;;;4.05;3.30;;;23.00;57.50;;;;;;5050853;28;20107;-79
2022/05/03 12:26:11;;;;;;;8.35;3.78;;;23.00;56.80;;;;;;5049702;28;20112;-79
2022/05/03 12:28:41;;;;;;;4.85;4.18;;;23.00;56.60;;;;;;5050343;28;20033;-80
2022/05/03 12:31:08;;;;;;;9.18;3.42;;;23.00;56.80;;;;;;5050442;28;20111;-80
2022/05/03 12:33:48;;;;;;;4.80;3.20;;;23.00;57.20;;;;;;5050951;28;20032;-79
2022/05/03 12:36:46;;;;;;;4.07;3.03;;;23.20;57.10;;;;;;5050117;28;20112;-78
2022/05/03 12:39:19;;;;;;;7.55;3.55;;;23.30;55.40;;;;;;5031153;28;20049;-79
2022/05/03 12:42:09;;;;;;;4.05;3.63;;;23.30;56.70;;;;;;5048815;28;20441;-79
2022/05/03 12:44:53;;;;;;;4.45;3.30;;;23.30;55.30;;;;;;5050490;28;20104;-79
2022/05/03 12:47:19;;;;;;;5.88;3.55;;;23.40;56.80;;;;;;5049765;28;20029;-79
2022/05/03 12:49:45;;;;;;;4.20;2.80;;;23.40;57.00;;;;;;5049206;28;20059;-79
2022/05/03 12:52:11;;;;;;;5.75;3.42;;;23.40;55.40;;;;;;5049802;28;20032;-80
2022/05/03 12:54:41;;;;;;;4.05;3.22;;;23.30;58.10;;;;;;5050408;28;20401;-79
2022/05/03 12:59:56;;;;;;;4.90;3.22;;;23.30;56.20;;;;;;5049555;28;20051;-79
2022/05/03 13:02:22;;;;;;;6.70;3.70;;;23.40;57.00;;;;;;5049269;28;20032;-79
2022/05/03 13:04:47;;;;;;;6.28;3.50;;;23.40;55.90;;;;;;5050314;28;20029;-84
2022/05/03 13:07:13;;;;;;;4.72;2.97;;;23.30;55.20;;;;;;5050211;28;20039;-84
2022/05/03 13:09:39;;;;;;;5.18;3.92;;;23.20;55.90;;;;;;5048334;28;20059;-85
2022/05/03 13:12:04;;;;;;;5.32;3.40;;;23.10;56.30;;;;;;5049226;28;20513;-77
2022/05/03 13:14:31;;;;;;;4.07;3.45;;;23.20;56.30;;;;;;5049241;28;20053;-77
2022/05/03 13:16:58;;;;;;;3.92;3.45;;;23.30;55.70;;;;;;5049900;28;20343;-78
2022/05/03 13:19:24;;;;;;;4.80;3.83;;;23.30;56.20;;;;;;5049235;28;20025;-77
2022/05/03 13:21:50;;;;;;;5.45;3.85;;;23.30;56.30;;;;;;5049875;28;20090;-80
2022/05/03 13:24:16;;;;;;;6.55;3.92;;;23.30;57.60;;;;;;5050170;28;20112;-84
2022/05/03 13:26:41;;;;;;;6.35;3.92;;;23.40;55.10;;;;;;5040759;28;20051;-82
2022/05/03 13:29:10;;;;;;;6.55;3.70;;;23.40;57.60;;;;;;5034211;28;20034;-81
2022/05/03 13:31:38;;;;;;;4.45;3.85;;;23.40;56.00;;;;;;5044964;28;20270;-80
2022/05/03 13:34:04;;;;;;;5.82;3.92;;;23.40;55.10;;;;;;5047625;28;20756;-85
2022/05/03 13:41:58;;;;;;;9.15;4.18;;;23.60;55.20;;;;;;5042131;28;20039;-85
2022/05/03 13:44:25;;;;;;;6.13;4.82;;;23.40;55.70;;;;;;5031167;28;20036;-81